sensor_id;sensor_type;location;lat;lon;timestamp;P1;durP1;ratioP1;P2;durP2;ratioP2
11139;SDS011;5624;49.388;11.350;2023-03-01T00:02:00;21.97;;;15.77;;
11139;SDS011;5624;49.388;11.350;2023-03-01T00:04:26;22.67;;;16.43;;
11139;SDS011;5624;49.388;11.350;2023-03-01T00:06:52;22.37;;;16.30;;
11139;SDS011;5624;49.388;11.350;2023-03-01T00:09:18;23.50;;;15.97;;
11139;SDS011;5624;49.388;11.350;2023-03-01T00:11:44;18.07;;;11.83;;
11139;SDS011;5624;49.388;11.350;2023-03-01T00:14:10;17.73;;;11.50;;
11139;SDS011;5624;49.388;11.350;2023-03-01T00:16:37;24.17;;;12.13;;
11139;SDS011;5624;49.388;11.350;2023-03-01T00:19:05;24.67;;;13.47;;
11139;SDS011;5624;49.388;11.350;2023-03-01T00:21:36;19.17;;;11.13;;
11139;SDS011;5624;49.388;11.350;2023-03-01T00:24:02;21.97;;;12.43;;
11139;SDS011;5624;49.388;11.350;2023-03-01T00:26:27;21.03;;;12.80;;
11139;SDS011;5624;49.388;11.350;2023-03-01T00:28:54;20.77;;;11.67;;
11139;SDS011;5624;49.388;11.350;2023-03-01T00:31:21;19.70;;;12.37;;
11139;SDS011;5624;49.388;11.350;2023-03-01T00:33:48;21.00;;;12.20;;
11139;SDS011;5624;49.388;11.350;2023-03-01T00:36:18;23.40;;;16.33;;
11139;SDS011;5624;49.388;11.350;2023-03-01T00:38:44;21.73;;;14.97;;
11139;SDS011;5624;49.388;11.350;2023-03-01T00:41:11;19.47;;;10.73;;
11139;SDS011;5624;49.388;11.350;2023-03-01T00:43:39;20.60;;;11.53;;
11139;SDS011;5624;49.388;11.350;2023-03-01T00:46:06;21.23;;;12.23;;
11139;SDS011;5624;49.388;11.350;2023-03-01T00:48:33;21.00;;;12.23;;
11139;SDS011;5624;49.388;11.350;2023-03-01T00:51:04;22.37;;;15.90;;
11139;SDS011;5624;49.388;11.350;2023-03-01T00:53:33;22.07;;;16.00;;
11139;SDS011;5624;49.388;11.350;2023-03-01T00:55:59;21.63;;;16.23;;
11139;SDS011;5624;49.388;11.350;2023-03-01T00:58:25;22.33;;;15.60;;
11139;SDS011;5624;49.388;11.350;2023-03-01T01:00:51;21.03;;;16.37;;
11139;SDS011;5624;49.388;11.350;2023-03-01T01:03:17;22.87;;;16.10;;
11139;SDS011;5624;49.388;11.350;2023-03-01T01:05:43;21.33;;;16.77;;
11139;SDS011;5624;49.388;11.350;2023-03-01T01:08:09;23.30;;;15.33;;
11139;SDS011;5624;49.388;11.350;2023-03-01T01:10:34;21.27;;;15.37;;
11139;SDS011;5624;49.388;11.350;2023-03-01T01:13:00;21.97;;;12.30;;
11139;SDS011;5624;49.388;11.350;2023-03-01T01:15:25;20.33;;;12.10;;
11139;SDS011;5624;49.388;11.350;2023-03-01T01:17:51;18.43;;;11.83;;
11139;SDS011;5624;49.388;11.350;2023-03-01T01:20:17;20.97;;;11.67;;
11139;SDS011;5624;49.388;11.350;2023-03-01T01:22:43;19.33;;;12.13;;
11139;SDS011;5624;49.388;11.350;2023-03-01T01:25:08;21.20;;;12.30;;
11139;SDS011;5624;49.388;11.350;2023-03-01T01:27:34;19.70;;;12.00;;
11139;SDS011;5624;49.388;11.350;2023-03-01T01:29:59;23.17;;;12.17;;
11139;SDS011;5624;49.388;11.350;2023-03-01T01:32:25;24.43;;;13.07;;
11139;SDS011;5624;49.388;11.350;2023-03-01T01:34:51;21.60;;;12.33;;
11139;SDS011;5624;49.388;11.350;2023-03-01T01:37:16;18.57;;;11.37;;
11139;SDS011;5624;49.388;11.350;2023-03-01T01:39:42;24.10;;;16.47;;
11139;SDS011;5624;49.388;11.350;2023-03-01T01:42:17;24.10;;;15.90;;
11139;SDS011;5624;49.388;11.350;2023-03-01T01:44:46;23.83;;;16.13;;
11139;SDS011;5624;49.388;11.350;2023-03-01T01:47:13;24.03;;;16.27;;
11139;SDS011;5624;49.388;11.350;2023-03-01T01:57:37;22.70;;;16.13;;
11139;SDS011;5624;49.388;11.350;2023-03-01T02:00:28;26.10;;;16.73;;
11139;SDS011;5624;49.388;11.350;2023-03-01T02:02:57;24.10;;;17.17;;
11139;SDS011;5624;49.388;11.350;2023-03-01T02:08:11;21.33;;;12.47;;
11139;SDS011;5624;49.388;11.350;2023-03-01T02:10:38;19.87;;;12.67;;
11139;SDS011;5624;49.388;11.350;2023-03-01T02:13:05;20.37;;;11.60;;
11139;SDS011;5624;49.388;11.350;2023-03-01T02:15:32;24.53;;;16.40;;
11139;SDS011;5624;49.388;11.350;2023-03-01T02:18:00;21.63;;;12.37;;
11139;SDS011;5624;49.388;11.350;2023-03-01T02:20:40;19.80;;;11.63;;
11139;SDS011;5624;49.388;11.350;2023-03-01T02:23:15;24.07;;;11.70;;
11139;SDS011;5624;49.388;11.350;2023-03-01T02:28:29;18.77;;;12.27;;
11139;SDS011;5624;49.388;11.350;2023-03-01T02:31:03;22.77;;;16.00;;
11139;SDS011;5624;49.388;11.350;2023-03-01T02:33:49;25.57;;;17.50;;
11139;SDS011;5624;49.388;11.350;2023-03-01T02:36:18;23.17;;;17.47;;
11139;SDS011;5624;49.388;11.350;2023-03-01T02:38:57;23.93;;;17.40;;
11139;SDS011;5624;49.388;11.350;2023-03-01T02:41:26;23.17;;;16.37;;
11139;SDS011;5624;49.388;11.350;2023-03-01T02:43:53;24.80;;;17.03;;
11139;SDS011;5624;49.388;11.350;2023-03-01T02:46:21;24.07;;;16.03;;
11139;SDS011;5624;49.388;11.350;2023-03-01T02:48:50;25.67;;;16.80;;
11139;SDS011;5624;49.388;11.350;2023-03-01T02:56:46;23.20;;;16.10;;
11139;SDS011;5624;49.388;11.350;2023-03-01T02:59:20;22.73;;;16.37;;
11139;SDS011;5624;49.388;11.350;2023-03-01T03:01:47;23.10;;;17.30;;
11139;SDS011;5624;49.388;11.350;2023-03-01T03:04:14;22.67;;;16.23;;
11139;SDS011;5624;49.388;11.350;2023-03-01T03:06:46;24.33;;;16.93;;
11139;SDS011;5624;49.388;11.350;2023-03-01T03:09:13;21.83;;;16.93;;
11139;SDS011;5624;49.388;11.350;2023-03-01T03:11:39;22.83;;;16.57;;
11139;SDS011;5624;49.388;11.350;2023-03-01T03:14:06;23.03;;;16.40;;
11139;SDS011;5624;49.388;11.350;2023-03-01T03:16:38;21.83;;;15.83;;
11139;SDS011;5624;49.388;11.350;2023-03-01T03:19:05;21.63;;;12.63;;
11139;SDS011;5624;49.388;11.350;2023-03-01T03:21:31;21.53;;;12.40;;
11139;SDS011;5624;49.388;11.350;2023-03-01T03:23:57;24.30;;;13.10;;
11139;SDS011;5624;49.388;11.350;2023-03-01T03:26:23;24.57;;;13.37;;
11139;SDS011;5624;49.388;11.350;2023-03-01T03:28:49;21.10;;;11.67;;
11139;SDS011;5624;49.388;11.350;2023-03-01T03:31:14;21.33;;;11.37;;
11139;SDS011;5624;49.388;11.350;2023-03-01T03:33:40;22.33;;;12.43;;
11139;SDS011;5624;49.388;11.350;2023-03-01T03:36:06;19.27;;;12.17;;
11139;SDS011;5624;49.388;11.350;2023-03-01T03:38:32;18.83;;;11.77;;
11139;SDS011;5624;49.388;11.350;2023-03-01T03:41:02;23.40;;;12.73;;
11139;SDS011;5624;49.388;11.350;2023-03-01T03:43:30;25.00;;;16.57;;
11139;SDS011;5624;49.388;11.350;2023-03-01T03:45:57;23.93;;;16.50;;
11139;SDS011;5624;49.388;11.350;2023-03-01T03:48:23;23.20;;;16.77;;
11139;SDS011;5624;49.388;11.350;2023-03-01T03:50:50;25.93;;;16.60;;
11139;SDS011;5624;49.388;11.350;2023-03-01T03:53:21;22.27;;;16.10;;
11139;SDS011;5624;49.388;11.350;2023-03-01T03:55:48;25.43;;;17.80;;
11139;SDS011;5624;49.388;11.350;2023-03-01T03:58:14;22.23;;;15.43;;
11139;SDS011;5624;49.388;11.350;2023-03-01T04:00:42;26.17;;;17.47;;
11139;SDS011;5624;49.388;11.350;2023-03-01T04:03:09;23.40;;;16.30;;
11139;SDS011;5624;49.388;11.350;2023-03-01T04:05:37;24.60;;;17.90;;
11139;SDS011;5624;49.388;11.350;2023-03-01T04:08:03;26.07;;;17.33;;
11139;SDS011;5624;49.388;11.350;2023-03-01T04:13:03;19.90;;;10.13;;
11139;SDS011;5624;49.388;11.350;2023-03-01T04:15:30;22.50;;;12.57;;
11139;SDS011;5624;49.388;11.350;2023-03-01T04:17:57;20.67;;;11.33;;
11139;SDS011;5624;49.388;11.350;2023-03-01T04:20:24;23.00;;;13.10;;
11139;SDS011;5624;49.388;11.350;2023-03-01T04:22:58;21.67;;;12.97;;
11139;SDS011;5624;49.388;11.350;2023-03-01T04:25:41;21.53;;;13.03;;
11139;SDS011;5624;49.388;11.350;2023-03-01T04:28:10;27.97;;;18.57;;
11139;SDS011;5624;49.388;11.350;2023-03-01T04:30:37;25.33;;;18.60;;
11139;SDS011;5624;49.388;11.350;2023-03-01T04:33:06;25.90;;;17.73;;
11139;SDS011;5624;49.388;11.350;2023-03-01T04:35:34;25.97;;;17.27;;
11139;SDS011;5624;49.388;11.350;2023-03-01T04:38:01;25.20;;;17.10;;
11139;SDS011;5624;49.388;11.350;2023-03-01T04:40:27;26.50;;;17.70;;
11139;SDS011;5624;49.388;11.350;2023-03-01T04:42:53;26.83;;;17.83;;
11139;SDS011;5624;49.388;11.350;2023-03-01T04:45:19;25.00;;;17.83;;
11139;SDS011;5624;49.388;11.350;2023-03-01T04:47:45;22.60;;;16.90;;
11139;SDS011;5624;49.388;11.350;2023-03-01T04:50:12;23.37;;;17.73;;
11139;SDS011;5624;49.388;11.350;2023-03-01T04:52:40;24.67;;;17.37;;
11139;SDS011;5624;49.388;11.350;2023-03-01T04:55:06;25.60;;;18.67;;
11139;SDS011;5624;49.388;11.350;2023-03-01T04:57:32;24.50;;;18.17;;
11139;SDS011;5624;49.388;11.350;2023-03-01T04:59:58;27.50;;;19.13;;
11139;SDS011;5624;49.388;11.350;2023-03-01T05:02:24;26.37;;;18.23;;
11139;SDS011;5624;49.388;11.350;2023-03-01T05:04:50;27.50;;;18.47;;
11139;SDS011;5624;49.388;11.350;2023-03-01T05:07:15;24.83;;;17.70;;
11139;SDS011;5624;49.388;11.350;2023-03-01T05:09:44;26.13;;;18.33;;
11139;SDS011;5624;49.388;11.350;2023-03-01T05:12:10;26.53;;;17.97;;
11139;SDS011;5624;49.388;11.350;2023-03-01T05:14:36;25.57;;;18.40;;
11139;SDS011;5624;49.388;11.350;2023-03-01T05:17:03;25.63;;;17.10;;
11139;SDS011;5624;49.388;11.350;2023-03-01T05:19:29;25.73;;;18.20;;
11139;SDS011;5624;49.388;11.350;2023-03-01T05:21:55;26.77;;;18.23;;
11139;SDS011;5624;49.388;11.350;2023-03-01T05:24:31;27.63;;;18.90;;
11139;SDS011;5624;49.388;11.350;2023-03-01T05:26:58;26.23;;;18.30;;
11139;SDS011;5624;49.388;11.350;2023-03-01T05:29:25;27.43;;;18.33;;
11139;SDS011;5624;49.388;11.350;2023-03-01T05:31:55;24.63;;;14.53;;
11139;SDS011;5624;49.388;11.350;2023-03-01T05:34:26;24.20;;;14.30;;
11139;SDS011;5624;49.388;11.350;2023-03-01T05:36:54;18.50;;;11.30;;
11139;SDS011;5624;49.388;11.350;2023-03-01T05:39:23;28.50;;;19.07;;
11139;SDS011;5624;49.388;11.350;2023-03-01T05:41:54;25.70;;;18.50;;
11139;SDS011;5624;49.388;11.350;2023-03-01T05:44:21;31.20;;;20.27;;
11139;SDS011;5624;49.388;11.350;2023-03-01T05:46:48;25.07;;;17.97;;
11139;SDS011;5624;49.388;11.350;2023-03-01T05:49:14;27.13;;;18.57;;
11139;SDS011;5624;49.388;11.350;2023-03-01T05:51:41;27.47;;;18.53;;
11139;SDS011;5624;49.388;11.350;2023-03-01T05:54:08;27.40;;;19.00;;
11139;SDS011;5624;49.388;11.350;2023-03-01T05:56:35;26.83;;;19.40;;
11139;SDS011;5624;49.388;11.350;2023-03-01T05:59:02;26.50;;;18.70;;
11139;SDS011;5624;49.388;11.350;2023-03-01T06:01:30;28.43;;;19.17;;
11139;SDS011;5624;49.388;11.350;2023-03-01T06:03:56;28.20;;;18.23;;
11139;SDS011;5624;49.388;11.350;2023-03-01T06:06:22;26.83;;;19.10;;
11139;SDS011;5624;49.388;11.350;2023-03-01T06:08:49;26.20;;;18.77;;
11139;SDS011;5624;49.388;11.350;2023-03-01T06:11:15;28.87;;;19.37;;
11139;SDS011;5624;49.388;11.350;2023-03-01T06:13:41;28.77;;;20.27;;
11139;SDS011;5624;49.388;11.350;2023-03-01T06:16:08;27.73;;;18.77;;
11139;SDS011;5624;49.388;11.350;2023-03-01T06:18:34;28.33;;;19.77;;
11139;SDS011;5624;49.388;11.350;2023-03-01T06:20:59;30.00;;;19.53;;
11139;SDS011;5624;49.388;11.350;2023-03-01T06:23:25;29.27;;;20.70;;
11139;SDS011;5624;49.388;11.350;2023-03-01T06:25:51;29.93;;;19.43;;
11139;SDS011;5624;49.388;11.350;2023-03-01T06:28:17;28.93;;;19.90;;
11139;SDS011;5624;49.388;11.350;2023-03-01T06:30:43;26.63;;;13.93;;
11139;SDS011;5624;49.388;11.350;2023-03-01T06:33:08;25.23;;;14.50;;
11139;SDS011;5624;49.388;11.350;2023-03-01T06:35:34;24.93;;;14.30;;
11139;SDS011;5624;49.388;11.350;2023-03-01T06:38:01;29.20;;;20.63;;
11139;SDS011;5624;49.388;11.350;2023-03-01T06:40:28;28.30;;;20.87;;
11139;SDS011;5624;49.388;11.350;2023-03-01T06:42:54;27.53;;;13.00;;
11139;SDS011;5624;49.388;11.350;2023-03-01T06:45:20;26.43;;;14.37;;
11139;SDS011;5624;49.388;11.350;2023-03-01T06:47:46;37.80;;;18.90;;
11139;SDS011;5624;49.388;11.350;2023-03-01T06:50:14;27.83;;;13.77;;
11139;SDS011;5624;49.388;11.350;2023-03-01T06:52:39;26.57;;;14.17;;
11139;SDS011;5624;49.388;11.350;2023-03-01T06:55:05;26.23;;;13.33;;
11139;SDS011;5624;49.388;11.350;2023-03-01T06:57:31;24.37;;;13.10;;
11139;SDS011;5624;49.388;11.350;2023-03-01T06:59:57;22.37;;;13.53;;
11139;SDS011;5624;49.388;11.350;2023-03-01T07:02:23;21.53;;;13.83;;
11139;SDS011;5624;49.388;11.350;2023-03-01T07:04:49;20.87;;;13.03;;
11139;SDS011;5624;49.388;11.350;2023-03-01T07:07:16;20.73;;;12.47;;
11139;SDS011;5624;49.388;11.350;2023-03-01T07:09:43;22.03;;;14.10;;
11139;SDS011;5624;49.388;11.350;2023-03-01T07:12:09;21.83;;;13.83;;
11139;SDS011;5624;49.388;11.350;2023-03-01T07:14:35;21.80;;;12.80;;
11139;SDS011;5624;49.388;11.350;2023-03-01T07:17:00;23.27;;;12.70;;
11139;SDS011;5624;49.388;11.350;2023-03-01T07:19:26;24.53;;;13.83;;
11139;SDS011;5624;49.388;11.350;2023-03-01T07:21:52;20.00;;;12.53;;
11139;SDS011;5624;49.388;11.350;2023-03-01T07:24:17;18.43;;;11.30;;
11139;SDS011;5624;49.388;11.350;2023-03-01T07:26:43;23.60;;;14.90;;
11139;SDS011;5624;49.388;11.350;2023-03-01T07:29:09;24.80;;;15.90;;
11139;SDS011;5624;49.388;11.350;2023-03-01T07:31:35;22.23;;;12.07;;
11139;SDS011;5624;49.388;11.350;2023-03-01T07:34:01;21.63;;;12.60;;
11139;SDS011;5624;49.388;11.350;2023-03-01T07:36:27;20.10;;;10.90;;
11139;SDS011;5624;49.388;11.350;2023-03-01T07:38:53;23.33;;;13.33;;
11139;SDS011;5624;49.388;11.350;2023-03-01T07:41:20;22.00;;;8.27;;
11139;SDS011;5624;49.388;11.350;2023-03-01T07:43:46;21.03;;;13.07;;
11139;SDS011;5624;49.388;11.350;2023-03-01T07:46:12;21.37;;;13.17;;
11139;SDS011;5624;49.388;11.350;2023-03-01T07:48:38;18.10;;;11.90;;
11139;SDS011;5624;49.388;11.350;2023-03-01T07:51:04;17.20;;;10.33;;
11139;SDS011;5624;49.388;11.350;2023-03-01T07:53:31;21.03;;;13.40;;
11139;SDS011;5624;49.388;11.350;2023-03-01T07:56:16;22.27;;;13.20;;
11139;SDS011;5624;49.388;11.350;2023-03-01T07:58:43;26.40;;;12.73;;
11139;SDS011;5624;49.388;11.350;2023-03-01T08:01:12;22.63;;;13.87;;
11139;SDS011;5624;49.388;11.350;2023-03-01T08:03:40;22.20;;;13.27;;
11139;SDS011;5624;49.388;11.350;2023-03-01T08:06:07;15.67;;;10.53;;
11139;SDS011;5624;49.388;11.350;2023-03-01T08:08:34;16.23;;;10.77;;
11139;SDS011;5624;49.388;11.350;2023-03-01T08:11:01;17.43;;;10.57;;
11139;SDS011;5624;49.388;11.350;2023-03-01T08:13:28;21.87;;;13.27;;
11139;SDS011;5624;49.388;11.350;2023-03-01T08:15:54;23.67;;;13.30;;
11139;SDS011;5624;49.388;11.350;2023-03-01T08:18:20;14.97;;;7.73;;
11139;SDS011;5624;49.388;11.350;2023-03-01T08:20:46;24.37;;;14.33;;
11139;SDS011;5624;49.388;11.350;2023-03-01T08:23:12;26.87;;;13.87;;
11139;SDS011;5624;49.388;11.350;2023-03-01T08:25:38;22.60;;;13.90;;
11139;SDS011;5624;49.388;11.350;2023-03-01T08:28:04;22.20;;;13.57;;
11139;SDS011;5624;49.388;11.350;2023-03-01T08:30:29;23.57;;;13.37;;
11139;SDS011;5624;49.388;11.350;2023-03-01T08:32:55;23.57;;;13.13;;
11139;SDS011;5624;49.388;11.350;2023-03-01T08:35:21;20.53;;;12.37;;
11139;SDS011;5624;49.388;11.350;2023-03-01T08:37:47;25.23;;;14.27;;
11139;SDS011;5624;49.388;11.350;2023-03-01T08:40:13;20.73;;;11.97;;
11139;SDS011;5624;49.388;11.350;2023-03-01T08:42:39;21.57;;;14.80;;
11139;SDS011;5624;49.388;11.350;2023-03-01T08:45:08;22.60;;;14.00;;
11139;SDS011;5624;49.388;11.350;2023-03-01T08:47:35;21.87;;;13.27;;
11139;SDS011;5624;49.388;11.350;2023-03-01T08:50:01;22.50;;;13.50;;
11139;SDS011;5624;49.388;11.350;2023-03-01T08:52:27;26.70;;;13.40;;
11139;SDS011;5624;49.388;11.350;2023-03-01T08:54:53;19.87;;;12.50;;
11139;SDS011;5624;49.388;11.350;2023-03-01T08:57:19;22.23;;;14.80;;
11139;SDS011;5624;49.388;11.350;2023-03-01T08:59:44;23.33;;;13.23;;
11139;SDS011;5624;49.388;11.350;2023-03-01T09:02:11;20.80;;;13.53;;
11139;SDS011;5624;49.388;11.350;2023-03-01T09:04:39;21.83;;;13.13;;
11139;SDS011;5624;49.388;11.350;2023-03-01T09:07:05;23.13;;;13.60;;
11139;SDS011;5624;49.388;11.350;2023-03-01T09:09:31;19.37;;;12.20;;
11139;SDS011;5624;49.388;11.350;2023-03-01T09:11:56;23.07;;;13.90;;
11139;SDS011;5624;49.388;11.350;2023-03-01T09:14:22;24.07;;;14.67;;
11139;SDS011;5624;49.388;11.350;2023-03-01T09:16:48;17.17;;;11.63;;
11139;SDS011;5624;49.388;11.350;2023-03-01T09:19:13;20.47;;;13.87;;
11139;SDS011;5624;49.388;11.350;2023-03-01T09:21:39;21.27;;;12.47;;
11139;SDS011;5624;49.388;11.350;2023-03-01T09:24:06;22.47;;;13.63;;
11139;SDS011;5624;49.388;11.350;2023-03-01T09:26:41;17.70;;;12.33;;
11139;SDS011;5624;49.388;11.350;2023-03-01T09:29:07;18.77;;;12.67;;
11139;SDS011;5624;49.388;11.350;2023-03-01T09:31:34;21.13;;;12.47;;
11139;SDS011;5624;49.388;11.350;2023-03-01T09:34:00;17.83;;;11.73;;
11139;SDS011;5624;49.388;11.350;2023-03-01T09:36:25;21.70;;;13.03;;
11139;SDS011;5624;49.388;11.350;2023-03-01T09:38:51;19.37;;;11.63;;
11139;SDS011;5624;49.388;11.350;2023-03-01T09:41:31;22.67;;;14.23;;
11139;SDS011;5624;49.388;11.350;2023-03-01T09:47:23;18.40;;;11.83;;
11139;SDS011;5624;49.388;11.350;2023-03-01T09:49:55;21.07;;;13.70;;
11139;SDS011;5624;49.388;11.350;2023-03-01T09:55:10;21.10;;;13.47;;
11139;SDS011;5624;49.388;11.350;2023-03-01T10:00:20;20.93;;;13.47;;
11139;SDS011;5624;49.388;11.350;2023-03-01T10:02:51;23.07;;;13.80;;
11139;SDS011;5624;49.388;11.350;2023-03-01T10:05:35;20.40;;;13.33;;
11139;SDS011;5624;49.388;11.350;2023-03-01T10:10:33;19.90;;;13.40;;
11139;SDS011;5624;49.388;11.350;2023-03-01T10:13:06;23.30;;;15.03;;
11139;SDS011;5624;49.388;11.350;2023-03-01T10:15:59;25.07;;;15.30;;
11139;SDS011;5624;49.388;11.350;2023-03-01T10:18:29;21.07;;;13.60;;
11139;SDS011;5624;49.388;11.350;2023-03-01T10:23:40;23.93;;;14.13;;
11139;SDS011;5624;49.388;11.350;2023-03-01T10:26:30;23.23;;;16.30;;
11139;SDS011;5624;49.388;11.350;2023-03-01T10:29:04;23.73;;;15.90;;
11139;SDS011;5624;49.388;11.350;2023-03-01T10:36:56;22.47;;;14.40;;
11139;SDS011;5624;49.388;11.350;2023-03-01T10:39:25;20.70;;;14.07;;
11139;SDS011;5624;49.388;11.350;2023-03-01T10:41:53;21.07;;;14.40;;
11139;SDS011;5624;49.388;11.350;2023-03-01T10:44:35;19.87;;;14.80;;
11139;SDS011;5624;49.388;11.350;2023-03-01T10:47:02;22.63;;;14.37;;
11139;SDS011;5624;49.388;11.350;2023-03-01T10:49:27;25.57;;;15.53;;
11139;SDS011;5624;49.388;11.350;2023-03-01T10:51:53;20.17;;;14.50;;
11139;SDS011;5624;49.388;11.350;2023-03-01T10:56:53;25.70;;;13.80;;
11139;SDS011;5624;49.388;11.350;2023-03-01T10:59:35;20.30;;;14.13;;
11139;SDS011;5624;49.388;11.350;2023-03-01T11:04:40;21.33;;;13.60;;
11139;SDS011;5624;49.388;11.350;2023-03-01T11:07:25;22.87;;;13.93;;
11139;SDS011;5624;49.388;11.350;2023-03-01T11:09:51;22.07;;;14.50;;
11139;SDS011;5624;49.388;11.350;2023-03-01T11:12:17;21.87;;;14.77;;
11139;SDS011;5624;49.388;11.350;2023-03-01T11:14:49;21.60;;;14.77;;
11139;SDS011;5624;49.388;11.350;2023-03-01T11:17:21;22.53;;;13.57;;
11139;SDS011;5624;49.388;11.350;2023-03-01T11:20:02;20.47;;;12.83;;
11139;SDS011;5624;49.388;11.350;2023-03-01T11:25:16;20.80;;;12.90;;
11139;SDS011;5624;49.388;11.350;2023-03-01T11:27:45;16.63;;;11.93;;
11139;SDS011;5624;49.388;11.350;2023-03-01T11:30:20;19.50;;;13.47;;
11139;SDS011;5624;49.388;11.350;2023-03-01T11:35:34;18.30;;;12.23;;
11139;SDS011;5624;49.388;11.350;2023-03-01T11:40:44;19.60;;;13.53;;
11139;SDS011;5624;49.388;11.350;2023-03-01T11:48:50;17.83;;;12.80;;
11139;SDS011;5624;49.388;11.350;2023-03-01T11:51:23;18.53;;;13.13;;
11139;SDS011;5624;49.388;11.350;2023-03-01T11:56:52;20.23;;;12.80;;
11139;SDS011;5624;49.388;11.350;2023-03-01T12:07:51;22.40;;;13.57;;
11139;SDS011;5624;49.388;11.350;2023-03-01T12:10:28;17.17;;;12.40;;
11139;SDS011;5624;49.388;11.350;2023-03-01T12:16:07;16.43;;;12.03;;
11139;SDS011;5624;49.388;11.350;2023-03-01T12:21:05;17.77;;;12.97;;
11139;SDS011;5624;49.388;11.350;2023-03-01T12:48:27;16.93;;;11.47;;
11139;SDS011;5624;49.388;11.350;2023-03-01T12:51:02;18.23;;;10.57;;
11139;SDS011;5624;49.388;11.350;2023-03-01T12:53:36;16.90;;;12.30;;
11139;SDS011;5624;49.388;11.350;2023-03-01T12:56:05;16.90;;;12.87;;
11139;SDS011;5624;49.388;11.350;2023-03-01T13:09:51;18.80;;;11.47;;
11139;SDS011;5624;49.388;11.350;2023-03-01T13:17:48;18.97;;;11.90;;
11139;SDS011;5624;49.388;11.350;2023-03-01T13:20:17;17.97;;;11.80;;
11139;SDS011;5624;49.388;11.350;2023-03-01T13:22:46;18.57;;;12.87;;
11139;SDS011;5624;49.388;11.350;2023-03-01T13:25:13;19.43;;;12.83;;
11139;SDS011;5624;49.388;11.350;2023-03-01T13:27:45;19.23;;;12.17;;
11139;SDS011;5624;49.388;11.350;2023-03-01T13:36:09;14.73;;;11.10;;
11139;SDS011;5624;49.388;11.350;2023-03-01T13:38:41;17.90;;;11.73;;
11139;SDS011;5624;49.388;11.350;2023-03-01T13:41:48;16.90;;;12.20;;
11139;SDS011;5624;49.388;11.350;2023-03-01T13:46:52;19.80;;;12.40;;
11139;SDS011;5624;49.388;11.350;2023-03-01T13:49:25;18.30;;;13.37;;
11139;SDS011;5624;49.388;11.350;2023-03-01T13:51:54;16.27;;;11.60;;
11139;SDS011;5624;49.388;11.350;2023-03-01T13:54:40;20.50;;;13.30;;
11139;SDS011;5624;49.388;11.350;2023-03-01T13:57:05;18.50;;;12.20;;
11139;SDS011;5624;49.388;11.350;2023-03-01T13:59:46;18.13;;;12.60;;
11139;SDS011;5624;49.388;11.350;2023-03-01T14:02:12;18.53;;;12.97;;
11139;SDS011;5624;49.388;11.350;2023-03-01T14:04:39;17.97;;;12.60;;
11139;SDS011;5624;49.388;11.350;2023-03-01T14:07:39;18.90;;;12.83;;
11139;SDS011;5624;49.388;11.350;2023-03-01T14:10:00;19.37;;;12.87;;
11139;SDS011;5624;49.388;11.350;2023-03-01T14:12:45;22.77;;;13.30;;
11139;SDS011;5624;49.388;11.350;2023-03-01T14:15:39;17.70;;;12.00;;
11139;SDS011;5624;49.388;11.350;2023-03-01T14:18:24;16.30;;;9.60;;
11139;SDS011;5624;49.388;11.350;2023-03-01T14:21:00;19.90;;;12.87;;
11139;SDS011;5624;49.388;11.350;2023-03-01T14:23:31;19.83;;;12.23;;
11139;SDS011;5624;49.388;11.350;2023-03-01T14:25:59;19.57;;;12.80;;
11139;SDS011;5624;49.388;11.350;2023-03-01T14:28:26;20.83;;;13.20;;
11139;SDS011;5624;49.388;11.350;2023-03-01T14:30:54;20.97;;;14.10;;
11139;SDS011;5624;49.388;11.350;2023-03-01T14:38:33;17.10;;;11.97;;
11139;SDS011;5624;49.388;11.350;2023-03-01T14:41:00;18.40;;;12.80;;
11139;SDS011;5624;49.388;11.350;2023-03-01T14:43:30;16.37;;;11.20;;
11139;SDS011;5624;49.388;11.350;2023-03-01T14:45:56;14.80;;;9.73;;
11139;SDS011;5624;49.388;11.350;2023-03-01T14:48:22;17.20;;;11.83;;
11139;SDS011;5624;49.388;11.350;2023-03-01T14:50:48;21.90;;;10.03;;
11139;SDS011;5624;49.388;11.350;2023-03-01T14:53:19;12.83;;;8.50;;
11139;SDS011;5624;49.388;11.350;2023-03-01T14:55:49;18.13;;;12.03;;
11139;SDS011;5624;49.388;11.350;2023-03-01T14:58:19;15.37;;;10.73;;
11139;SDS011;5624;49.388;11.350;2023-03-01T15:00:55;16.63;;;10.90;;
11139;SDS011;5624;49.388;11.350;2023-03-01T15:03:39;22.63;;;11.80;;
11139;SDS011;5624;49.388;11.350;2023-03-01T15:06:08;18.37;;;10.87;;
11139;SDS011;5624;49.388;11.350;2023-03-01T15:08:37;19.40;;;12.57;;
11139;SDS011;5624;49.388;11.350;2023-03-01T15:13:39;16.27;;;10.57;;
11139;SDS011;5624;49.388;11.350;2023-03-01T15:18:45;19.30;;;11.70;;
11139;SDS011;5624;49.388;11.350;2023-03-01T15:23:47;17.97;;;12.60;;
11139;SDS011;5624;49.388;11.350;2023-03-01T15:26:49;17.30;;;11.67;;
11139;SDS011;5624;49.388;11.350;2023-03-01T15:29:20;14.97;;;10.37;;
11139;SDS011;5624;49.388;11.350;2023-03-01T15:31:58;18.60;;;11.63;;
11139;SDS011;5624;49.388;11.350;2023-03-01T15:34:27;17.07;;;11.13;;
11139;SDS011;5624;49.388;11.350;2023-03-01T15:36:55;15.30;;;9.73;;
11139;SDS011;5624;49.388;11.350;2023-03-01T15:44:32;18.07;;;11.13;;
11139;SDS011;5624;49.388;11.350;2023-03-01T15:46:59;19.23;;;13.60;;
11139;SDS011;5624;49.388;11.350;2023-03-01T15:49:33;18.17;;;11.40;;
11139;SDS011;5624;49.388;11.350;2023-03-01T15:52:03;18.73;;;12.67;;
11139;SDS011;5624;49.388;11.350;2023-03-01T15:54:30;17.80;;;10.90;;
11139;SDS011;5624;49.388;11.350;2023-03-01T15:56:56;16.10;;;10.30;;
11139;SDS011;5624;49.388;11.350;2023-03-01T15:59:22;21.70;;;12.27;;
11139;SDS011;5624;49.388;11.350;2023-03-01T16:01:48;21.87;;;12.87;;
11139;SDS011;5624;49.388;11.350;2023-03-01T16:04:15;17.17;;;10.00;;
11139;SDS011;5624;49.388;11.350;2023-03-01T16:06:47;16.03;;;9.20;;
11139;SDS011;5624;49.388;11.350;2023-03-01T16:09:23;21.57;;;13.20;;
11139;SDS011;5624;49.388;11.350;2023-03-01T16:11:50;20.33;;;12.40;;
11139;SDS011;5624;49.388;11.350;2023-03-01T16:14:16;24.27;;;14.87;;
11139;SDS011;5624;49.388;11.350;2023-03-01T16:16:43;23.40;;;12.37;;
11139;SDS011;5624;49.388;11.350;2023-03-01T16:19:09;20.13;;;12.80;;
11139;SDS011;5624;49.388;11.350;2023-03-01T16:21:35;19.80;;;13.23;;
11139;SDS011;5624;49.388;11.350;2023-03-01T16:24:01;19.20;;;11.67;;
11139;SDS011;5624;49.388;11.350;2023-03-01T16:26:27;19.73;;;11.87;;
11139;SDS011;5624;49.388;11.350;2023-03-01T16:28:56;19.03;;;11.87;;
11139;SDS011;5624;49.388;11.350;2023-03-01T16:31:23;20.17;;;12.23;;
11139;SDS011;5624;49.388;11.350;2023-03-01T16:33:52;18.93;;;11.33;;
11139;SDS011;5624;49.388;11.350;2023-03-01T16:36:19;17.33;;;11.43;;
11139;SDS011;5624;49.388;11.350;2023-03-01T16:38:48;18.33;;;11.43;;
11139;SDS011;5624;49.388;11.350;2023-03-01T16:41:15;20.07;;;12.37;;
11139;SDS011;5624;49.388;11.350;2023-03-01T16:43:42;20.73;;;12.73;;
11139;SDS011;5624;49.388;11.350;2023-03-01T16:46:11;21.20;;;13.87;;
11139;SDS011;5624;49.388;11.350;2023-03-01T16:48:41;20.23;;;13.03;;
11139;SDS011;5624;49.388;11.350;2023-03-01T16:51:07;18.70;;;11.30;;
11139;SDS011;5624;49.388;11.350;2023-03-01T16:53:33;19.70;;;12.97;;
11139;SDS011;5624;49.388;11.350;2023-03-01T16:56:04;22.27;;;14.47;;